Private Wetterstation Wechselburg
Wetterdaten: Sonntag, 20.12.2020
Datum Zeit Temp. +2m Bodentemp. Temp.+5cm Temp. Wind Windchill X Diff Temp. Feuchte +2m Feuchte +5cm Luftdruck Regen Wind Richtung Richtung Sonnenschein Taupunkt Windchill Windben
20.12.2020 00:00 0,8 C 5,6 C -0,5 C 0,5 C -0,1 C 0,0 C 87 % 92 % 1023,2 hPa 0,0 l/m 0,3 km/h (0 Bft) SW 225 0 min -1,1 C -0,1 C 1,8 km/h (1 Bft)
20.12.2020 00:05 0,8 C 5,7 C -0,5 C 0,5 C 0,0 C 0,0 C 87 % 92 % 1023,2 hPa 0,0 l/m 0,2 km/h (0 Bft) SW 225 0 min -1,1 C 0,0 C 0,0 km/h (0 Bft)
20.12.2020 00:10 0,7 C 5,7 C -0,7 C 0,4 C -0,1 C 0,0 C 87 % 92 % 1023,8 hPa 0,0 l/m 0,5 km/h (0 Bft) SW 225 0 min -1,2 C -0,1 C 0,0 km/h (0 Bft)
20.12.2020 00:15 0,6 C 5,8 C -0,8 C 0,4 C -0,1 C 0,0 C 87 % 92 % 1023,8 hPa 0,0 l/m 0,5 km/h (0 Bft) SW 225 0 min -1,3 C -0,1 C 0,0 km/h (0 Bft)
20.12.2020 00:20 0,7 C 5,8 C -0,9 C 0,4 C -0,3 C 0,0 C 87 % 92 % 1023,8 hPa 0,0 l/m 0,0 km/h (0 Bft) SW 225 0 min -1,2 C -0,3 C 0,0 km/h (0 Bft)
20.12.2020 00:25 0,5 C 5,7 C -0,9 C 0,1 C -0,6 C 0,0 C 87 % 92 % 1023,8 hPa 0,0 l/m 0,0 km/h (0 Bft) SW 225 0 min -1,4 C -0,6 C 0,0 km/h (0 Bft)
20.12.2020 00:30 0,4 C 5,7 C -0,9 C 0,0 C -0,7 C 0,0 C 87 % 92 % 1023,4 hPa 0,0 l/m 0,0 km/h (0 Bft) SW 225 0 min -1,5 C -0,7 C 0,0 km/h (0 Bft)
20.12.2020 00:35 0,3 C 5,7 C -1,1 C -0,1 C -0,9 C 0,0 C 87 % 92 % 1023,4 hPa 0,0 l/m 0,0 km/h (0 Bft) SW 225 0 min -1,6 C -0,9 C 0,0 km/h (0 Bft)
20.12.2020 00:40 0,3 C 5,7 C -1,1 C -0,1 C -0,9 C 0,0 C 87 % 92 % 1023,4 hPa 0,0 l/m 0,0 km/h (0 Bft) SW 225 0 min -1,6 C -0,9 C 0,0 km/h (0 Bft)
20.12.2020 00:45 0,3 C 5,7 C -1,1 C -0,1 C -0,9 C 0,0 C 87 % 92 % 1023,4 hPa 0,0 l/m 0,5 km/h (0 Bft) SW 225 0 min -1,6 C -0,9 C 3,5 km/h (1 Bft)
20.12.2020 00:50 0,1 C 5,7 C -1,1 C -0,2 C -0,7 C 0,0 C 87 % 92 % 1023,5 hPa 0,0 l/m 0,6 km/h (0 Bft) SW 225 0 min -1,8 C -0,7 C 0,0 km/h (0 Bft)
20.12.2020 00:55 0,1 C 5,7 C -1,3 C -0,2 C -0,7 C 0,0 C 87 % 92 % 1023,5 hPa 0,0 l/m 0,6 km/h (0 Bft) SW 225 0 min -1,8 C -0,7 C 1,8 km/h (1 Bft)
20.12.2020 01:00 0,1 C 5,7 C -1,2 C -0,1 C -0,6 C 0,0 C 87 % 92 % 1023,5 hPa 0,0 l/m 0,2 km/h (0 Bft) SW 225 0 min -1,8 C -0,6 C 0,0 km/h (0 Bft)
20.12.2020 01:05 0,1 C 5,7 C -1,2 C -0,1 C -0,6 C 0,0 C 87 % 92 % 1023,5 hPa 0,0 l/m 0,2 km/h (0 Bft) SW 225 0 min -1,8 C -0,6 C 0,0 km/h (0 Bft)
20.12.2020 01:10 0,1 C 5,7 C -1,2 C -0,1 C -0,6 C 0,0 C 87 % 92 % 1023,5 hPa 0,0 l/m 0,5 km/h (0 Bft) W-SW 247 0 min -1,8 C -0,6 C 2,4 km/h (1 Bft)
20.12.2020 01:15 -0,1 C 5,7 C -1,3 C -0,4 C -1,0 C 0,0 C 87 % 92 % 1023,5 hPa 0,0 l/m 0,8 km/h (0 Bft) NW 315 0 min -2,0 C -1,0 C 1,6 km/h (1 Bft)
20.12.2020 01:20 -0,3 C 5,7 C -1,3 C -0,6 C -1,1 C 0,0 C 87 % 92 % 1023,5 hPa 0,0 l/m 0,6 km/h (0 Bft) NW 315 0 min -2,2 C -1,1 C 0,0 km/h (0 Bft)
20.12.2020 01:25 -0,4 C 5,7 C -1,4 C -0,7 C -1,3 C 0,0 C 87 % 92 % 1023,5 hPa 0,0 l/m 0,2 km/h (0 Bft) NW 315 0 min -2,3 C -1,3 C 0,0 km/h (0 Bft)
20.12.2020 01:30 -0,5 C 5,7 C -1,3 C -0,8 C -1,3 C 0,0 C 87 % 92 % 1023,2 hPa 0,0 l/m 0,0 km/h (0 Bft) NW 315 0 min -2,4 C -1,3 C 0,0 km/h (0 Bft)
20.12.2020 01:35 -0,3 C 5,7 C -1,3 C -0,6 C -1,1 C 0,0 C 87 % 92 % 1023,2 hPa 0,0 l/m 0,0 km/h (0 Bft) NW 315 0 min -2,2 C -1,1 C 1,9 km/h (1 Bft)
20.12.2020 01:40 -0,4 C 5,7 C -1,3 C -0,6 C -1,0 C 0,0 C 87 % 92 % 1023,2 hPa 0,0 l/m 0,3 km/h (0 Bft) W 270 0 min -2,3 C -1,0 C 0,0 km/h (0 Bft)
20.12.2020 01:45 -0,3 C 5,7 C -1,1 C -0,5 C -1,0 C 0,0 C 88 % 92 % 1023,2 hPa 0,0 l/m 0,3 km/h (0 Bft) W 270 0 min -2,0 C -1,0 C 0,0 km/h (0 Bft)
20.12.2020 01:50 -0,3 C 5,7 C -1,0 C -0,5 C -1,0 C 0,0 C 88 % 92 % 1023,1 hPa 0,0 l/m 0,0 km/h (0 Bft) W 270 0 min -2,0 C -1,0 C 0,0 km/h (0 Bft)
20.12.2020 01:55 -0,2 C 5,6 C -0,9 C -0,4 C -0,7 C 0,0 C 88 % 92 % 1023,1 hPa 0,0 l/m 0,6 km/h (0 Bft) W 270 0 min -1,9 C -0,7 C 4,2 km/h (1 Bft)
20.12.2020 02:00 0,1 C 5,6 C -0,7 C -0,1 C -0,4 C 0,0 C 88 % 92 % 1023,1 hPa 0,0 l/m 1,4 km/h (1 Bft) SW 225 0 min -1,6 C -0,4 C 0,0 km/h (0 Bft)
20.12.2020 02:05 0,3 C 5,6 C -0,5 C 0,1 C -0,2 C 0,0 C 88 % 92 % 1023,1 hPa 0,0 l/m 1,6 km/h (1 Bft) SW 225 0 min -1,4 C -0,2 C 2,6 km/h (1 Bft)
20.12.2020 02:10 0,4 C 5,6 C -0,5 C 0,3 C 0,1 C 0,0 C 88 % 92 % 1023,0 hPa 0,0 l/m 0,6 km/h (0 Bft) W 270 0 min -1,3 C 0,1 C 0,0 km/h (0 Bft)
20.12.2020 02:15 0,5 C 5,6 C -0,5 C 0,4 C 0,2 C 0,0 C 88 % 92 % 1023,0 hPa 0,0 l/m 0,3 km/h (0 Bft) W-SW 247 0 min -1,3 C 0,2 C 0,0 km/h (0 Bft)
20.12.2020 02:20 0,6 C 5,6 C -0,5 C 0,5 C 0,4 C 0,0 C 88 % 92 % 1023,0 hPa 0,0 l/m 0,5 km/h (0 Bft) W-SW 247 0 min -1,2 C 0,4 C 0,0 km/h (0 Bft)
20.12.2020 02:25 0,7 C 5,4 C -0,3 C 0,7 C 0,6 C 0,0 C 88 % 92 % 1023,0 hPa 0,0 l/m 0,6 km/h (0 Bft) W-SW 247 0 min -1,1 C 0,6 C 3,5 km/h (1 Bft)
20.12.2020 02:30 0,8 C 5,4 C -0,1 C 0,8 C 0,8 C 0,0 C 88 % 93 % 1022,5 hPa 0,0 l/m 0,8 km/h (0 Bft) SW 225 0 min -1,0 C 0,8 C 3,4 km/h (1 Bft)
20.12.2020 02:35 1,2 C 5,4 C 0,1 C 1,2 C 1,2 C 0,0 C 88 % 93 % 1022,5 hPa 0,0 l/m 1,9 km/h (1 Bft) W-SW 247 0 min -0,6 C 1,2 C 1,9 km/h (1 Bft)
20.12.2020 02:40 1,3 C 5,4 C 0,2 C 1,4 C 1,4 C 0,1 C 88 % 93 % 1022,5 hPa 0,0 l/m 1,9 km/h (1 Bft) W 270 0 min -0,5 C 1,4 C 1,8 km/h (1 Bft)
20.12.2020 02:45 1,5 C 5,4 C 0,3 C 1,5 C 1,5 C 0,0 C 88 % 93 % 1022,5 hPa 0,0 l/m 1,0 km/h (0 Bft) W 270 0 min -0,3 C 1,5 C 0,0 km/h (0 Bft)
20.12.2020 02:50 1,7 C 5,4 C 0,3 C 1,6 C 1,5 C 0,0 C 88 % 93 % 1023,2 hPa 0,0 l/m 0,3 km/h (0 Bft) W-NW 292 0 min -0,1 C 1,5 C 0,0 km/h (0 Bft)
20.12.2020 02:55 1,7 C 5,4 C 0,5 C 1,7 C 1,6 C 0,0 C 88 % 92 % 1023,2 hPa 0,0 l/m 0,0 km/h (0 Bft) NW 315 0 min -0,1 C 1,6 C 0,0 km/h (0 Bft)
20.12.2020 03:00 1,7 C 5,4 C 0,5 C 1,7 C 1,7 C 0,0 C 87 % 92 % 1023,2 hPa 0,0 l/m 0,0 km/h (0 Bft) S-SO 157 0 min -0,2 C 1,7 C 0,0 km/h (0 Bft)
20.12.2020 03:05 1,9 C 5,4 C 0,7 C 1,9 C 1,8 C 0,0 C 87 % 92 % 1023,2 hPa 0,0 l/m 0,2 km/h (0 Bft) W 270 0 min -0,0 C 1,8 C 0,0 km/h (0 Bft)
20.12.2020 03:10 2,0 C 5,4 C 0,7 C 2,0 C 1,9 C 0,0 C 87 % 92 % 1022,8 hPa 0,0 l/m 0,2 km/h (0 Bft) W 270 0 min 0,1 C 1,9 C 0,0 km/h (0 Bft)
20.12.2020 03:15 2,0 C 5,4 C 0,7 C 2,0 C 1,9 C 0,0 C 87 % 92 % 1022,8 hPa 0,0 l/m 0,0 km/h (0 Bft) W-NW 292 0 min 0,1 C 1,9 C 0,0 km/h (0 Bft)
20.12.2020 03:20 2,1 C 5,4 C 0,8 C 2,1 C 2,0 C 0,0 C 87 % 92 % 1022,8 hPa 0,0 l/m 0,0 km/h (0 Bft) S-SO 157 0 min 0,2 C 2,0 C 0,0 km/h (0 Bft)
20.12.2020 03:25 2,1 C 5,4 C 1,0 C 2,1 C 2,1 C 0,0 C 87 % 92 % 1022,8 hPa 0,0 l/m 0,0 km/h (0 Bft) NW 315 0 min 0,2 C 2,1 C 0,0 km/h (0 Bft)
20.12.2020 03:30 2,2 C 5,3 C 1,2 C 2,2 C 2,2 C 0,0 C 87 % 92 % 1023,0 hPa 0,0 l/m 0,0 km/h (0 Bft) W-SW 247 0 min 0,3 C 2,2 C 0,0 km/h (0 Bft)
20.12.2020 03:35 2,3 C 5,3 C 1,3 C 2,4 C 2,4 C 0,1 C 87 % 92 % 1023,0 hPa 0,0 l/m 0,3 km/h (0 Bft) S 180 0 min 0,4 C 2,4 C 0,0 km/h (0 Bft)
20.12.2020 03:40 2,4 C 5,3 C 1,3 C 2,4 C 2,4 C 0,0 C 86 % 92 % 1023,0 hPa 0,0 l/m 1,0 km/h (0 Bft) S 180 0 min 0,3 C 2,4 C 2,6 km/h (1 Bft)
20.12.2020 03:45 2,4 C 5,3 C 1,3 C 2,4 C 2,3 C 0,0 C 86 % 92 % 1023,0 hPa 0,0 l/m 1,0 km/h (0 Bft) S-SO 157 0 min 0,3 C 2,3 C 0,0 km/h (0 Bft)
20.12.2020 03:50 2,5 C 5,3 C 1,3 C 2,4 C 2,2 C 0,0 C 86 % 92 % 1022,8 hPa 0,0 l/m 0,5 km/h (0 Bft) SO 135 0 min 0,4 C 2,2 C 0,0 km/h (0 Bft)
20.12.2020 03:55 2,5 C 5,3 C 1,3 C 2,4 C 2,1 C 0,0 C 86 % 92 % 1022,8 hPa 0,0 l/m 0,5 km/h (0 Bft) SW 225 0 min 0,4 C 2,1 C 2,4 km/h (1 Bft)
20.12.2020 04:00 2,5 C 5,3 C 1,3 C 2,4 C 2,2 C 0,0 C 86 % 92 % 1022,8 hPa 0,0 l/m 1,1 km/h (1 Bft) SW 225 0 min 0,4 C 2,2 C 2,3 km/h (1 Bft)
20.12.2020 04:05 2,5 C 5,3 C 1,4 C 2,4 C 2,2 C 0,0 C 85 % 92 % 1022,8 hPa 0,0 l/m 1,9 km/h (1 Bft) SW 225 0 min 0,2 C 2,2 C 2,3 km/h (1 Bft)
20.12.2020 04:10 2,4 C 5,3 C 1,4 C 2,4 C 2,3 C 0,0 C 85 % 92 % 1022,8 hPa 0,0 l/m 1,6 km/h (1 Bft) S-SW 202 0 min 0,1 C 2,3 C 2,1 km/h (1 Bft)
20.12.2020 04:15 2,4 C 5,3 C 1,5 C 2,4 C 2,3 C 0,0 C 85 % 91 % 1022,8 hPa 0,0 l/m 0,8 km/h (0 Bft) SW 225 0 min 0,1 C 2,3 C 0,0 km/h (0 Bft)
20.12.2020 04:20 2,5 C 5,3 C 1,5 C 2,4 C 2,3 C 0,0 C 85 % 91 % 1022,8 hPa 0,0 l/m 0,8 km/h (0 Bft) S 180 0 min 0,2 C 2,3 C 3,4 km/h (1 Bft)
20.12.2020 04:25 2,4 C 5,3 C 1,7 C 2,4 C 2,4 C 0,0 C 85 % 91 % 1022,8 hPa 0,0 l/m 0,8 km/h (0 Bft) O-SO 112 0 min 0,1 C 2,4 C 0,0 km/h (0 Bft)
20.12.2020 04:30 2,5 C 5,3 C 1,7 C 2,5 C 2,5 C 0,0 C 85 % 91 % 1023,0 hPa 0,0 l/m 0,6 km/h (0 Bft) N-NO 22 0 min 0,2 C 2,5 C 1,6 km/h (1 Bft)
20.12.2020 04:35 2,7 C 5,3 C 1,9 C 2,7 C 2,6 C 0,0 C 85 % 90 % 1023,0 hPa 0,0 l/m 0,3 km/h (0 Bft) O-NO 67 0 min 0,4 C 2,6 C 0,0 km/h (0 Bft)
20.12.2020 04:40 2,7 C 5,3 C 1,9 C 2,7 C 2,6 C 0,0 C 85 % 90 % 1023,0 hPa 0,0 l/m 0,3 km/h (0 Bft) NO 45 0 min 0,4 C 2,6 C 0,0 km/h (0 Bft)
20.12.2020 04:45 2,7 C 5,3 C 1,9 C 2,7 C 2,7 C 0,0 C 84 % 90 % 1023,0 hPa 0,0 l/m 0,0 km/h (0 Bft) SO 135 0 min 0,3 C 2,7 C 0,0 km/h (0 Bft)
20.12.2020 04:50 2,7 C 5,3 C 1,9 C 2,7 C 2,7 C 0,0 C 84 % 90 % 1023,1 hPa 0,0 l/m 0,2 km/h (0 Bft) SO 135 0 min 0,3 C 2,7 C 0,0 km/h (0 Bft)
20.12.2020 04:55 2,7 C 5,3 C 1,9 C 2,8 C 2,8 C 0,1 C 84 % 90 % 1023,1 hPa 0,0 l/m 0,3 km/h (0 Bft) S 180 0 min 0,3 C 2,8 C 0,0 km/h (0 Bft)
20.12.2020 05:00 2,7 C 5,3 C 2,0 C 2,8 C 2,8 C 0,1 C 84 % 90 % 1023,1 hPa 0,0 l/m 0,5 km/h (0 Bft) S-SO 157 0 min 0,3 C 2,8 C 2,3 km/h (1 Bft)
20.12.2020 05:05 2,7 C 5,3 C 2,0 C 2,8 C 2,8 C 0,1 C 84 % 90 % 1023,1 hPa 0,0 l/m 0,8 km/h (0 Bft) S 180 0 min 0,3 C 2,8 C 0,0 km/h (0 Bft)
20.12.2020 05:10 2,7 C 5,3 C 1,9 C 2,7 C 2,7 C 0,0 C 84 % 90 % 1023,0 hPa 0,0 l/m 0,5 km/h (0 Bft) S 180 0 min 0,3 C 2,7 C 0,0 km/h (0 Bft)
20.12.2020 05:15 2,5 C 5,3 C 1,8 C 2,5 C 2,5 C 0,0 C 84 % 90 % 1023,0 hPa 0,0 l/m 0,0 km/h (0 Bft) S 180 0 min 0,1 C 2,5 C 0,0 km/h (0 Bft)
20.12.2020 05:20 2,4 C 5,3 C 1,7 C 2,4 C 2,4 C 0,0 C 84 % 90 % 1023,0 hPa 0,0 l/m 0,0 km/h (0 Bft) S 180 0 min -0,0 C 2,4 C 0,0 km/h (0 Bft)
20.12.2020 05:25 2,4 C 5,3 C 1,6 C 2,4 C 2,3 C 0,0 C 84 % 90 % 1023,0 hPa 0,0 l/m 0,0 km/h (0 Bft) S 180 0 min -0,0 C 2,3 C 0,0 km/h (0 Bft)
20.12.2020 05:30 2,4 C 5,4 C 1,6 C 2,4 C 2,3 C 0,0 C 84 % 90 % 1023,6 hPa 0,0 l/m 0,0 km/h (0 Bft) O-SO 112 0 min -0,0 C 2,3 C 0,0 km/h (0 Bft)
20.12.2020 05:35 2,3 C 5,4 C 1,6 C 2,3 C 2,3 C 0,0 C 84 % 90 % 1023,6 hPa 0,0 l/m 0,0 km/h (0 Bft) O-SO 112 0 min -0,1 C 2,3 C 0,0 km/h (0 Bft)
20.12.2020 05:40 2,3 C 5,3 C 1,6 C 2,3 C 2,2 C 0,0 C 84 % 90 % 1023,6 hPa 0,0 l/m 0,0 km/h (0 Bft) O-SO 112 0 min -0,1 C 2,2 C 0,0 km/h (0 Bft)
20.12.2020 05:45 2,3 C 5,3 C 1,6 C 2,3 C 2,2 C 0,0 C 84 % 90 % 1023,6 hPa 0,0 l/m 0,0 km/h (0 Bft) O-SO 112 0 min -0,1 C 2,2 C 0,0 km/h (0 Bft)
20.12.2020 05:50 2,3 C 5,4 C 1,5 C 2,2 C 2,1 C 0,0 C 84 % 90 % 1022,8 hPa 0,0 l/m 0,0 km/h (0 Bft) O-SO 112 0 min -0,1 C 2,1 C 0,0 km/h (0 Bft)
20.12.2020 05:55 2,2 C 5,3 C 1,5 C 2,2 C 2,1 C 0,0 C 84 % 90 % 1022,8 hPa 0,0 l/m 0,0 km/h (0 Bft) O-SO 112 0 min -0,2 C 2,1 C 0,0 km/h (0 Bft)
20.12.2020 06:00 2,2 C 5,4 C 1,5 C 2,1 C 2,0 C 0,0 C 84 % 90 % 1022,8 hPa 0,0 l/m 0,0 km/h (0 Bft) O-SO 112 0 min -0,2 C 2,0 C 0,0 km/h (0 Bft)
20.12.2020 06:05 2,1 C 5,3 C 1,6 C 2,1 C 2,0 C 0,0 C 84 % 90 % 1022,8 hPa 0,0 l/m 0,0 km/h (0 Bft) O-SO 112 0 min -0,3 C 2,0 C 0,0 km/h (0 Bft)
20.12.2020 06:10 2,1 C 5,4 C 1,6 C 2,1 C 2,0 C 0,0 C 84 % 90 % 1023,0 hPa 0,0 l/m 0,0 km/h (0 Bft) O-SO 112 0 min -0,3 C 2,0 C 0,0 km/h (0 Bft)
20.12.2020 06:15 2,1 C 5,4 C 1,5 C 2,1 C 2,0 C 0,0 C 84 % 90 % 1023,0 hPa 0,0 l/m 0,0 km/h (0 Bft) O-SO 112 0 min -0,3 C 2,0 C 0,0 km/h (0 Bft)
20.12.2020 06:20 2,0 C 5,3 C 1,5 C 2,0 C 2,0 C 0,0 C 84 % 90 % 1023,0 hPa 0,0 l/m 0,0 km/h (0 Bft) O-SO 112 0 min -0,4 C 2,0 C 0,0 km/h (0 Bft)
20.12.2020 06:25 2,0 C 5,3 C 1,6 C 2,0 C 2,0 C 0,0 C 84 % 90 % 1023,0 hPa 0,0 l/m 0,0 km/h (0 Bft) O-SO 112 0 min -0,4 C 2,0 C 0,0 km/h (0 Bft)
20.12.2020 06:30 2,0 C 5,4 C 1,5 C 2,0 C 2,0 C 0,0 C 84 % 90 % 1022,6 hPa 0,0 l/m 0,0 km/h (0 Bft) O-SO 112 0 min -0,4 C 2,0 C 0,0 km/h (0 Bft)
20.12.2020 06:35 2,0 C 5,4 C 1,5 C 2,0 C 2,0 C 0,0 C 84 % 90 % 1022,6 hPa 0,0 l/m 0,0 km/h (0 Bft) O-SO 112 0 min -0,4 C 2,0 C 0,0 km/h (0 Bft)
20.12.2020 06:40 2,0 C 5,4 C 1,5 C 2,0 C 2,0 C 0,0 C 84 % 90 % 1022,6 hPa 0,0 l/m 0,0 km/h (0 Bft) O-SO 112 0 min -0,4 C 2,0 C 0,0 km/h (0 Bft)
20.12.2020 06:45 2,0 C 5,4 C 1,5 C 2,0 C 2,0 C 0,0 C 84 % 90 % 1022,6 hPa 0,0 l/m 0,0 km/h (0 Bft) O-SO 112 0 min -0,4 C 2,0 C 0,0 km/h (0 Bft)
20.12.2020 06:50 1,9 C 5,4 C 1,5 C 2,0 C 2,0 C 0,1 C 85 % 90 % 1022,8 hPa 0,0 l/m 0,0 km/h (0 Bft) O-SO 112 0 min -0,3 C 2,0 C 0,0 km/h (0 Bft)
20.12.2020 06:55 1,9 C 5,4 C 1,5 C 2,0 C 2,0 C 0,1 C 85 % 90 % 1022,8 hPa 0,0 l/m 0,0 km/h (0 Bft) O-SO 112 0 min -0,3 C 2,0 C 0,0 km/h (0 Bft)
20.12.2020 07:00 1,9 C 5,4 C 1,5 C 2,0 C 2,0 C 0,1 C 85 % 90 % 1022,8 hPa 0,0 l/m 0,0 km/h (0 Bft) O-SO 112 0 min -0,3 C 2,0 C 0,0 km/h (0 Bft)
20.12.2020 07:05 1,9 C 5,4 C 1,5 C 2,0 C 2,0 C 0,1 C 85 % 90 % 1022,8 hPa 0,0 l/m 0,0 km/h (0 Bft) O-SO 112 0 min -0,3 C 2,0 C 0,0 km/h (0 Bft)
20.12.2020 07:10 1,9 C 5,4 C 1,5 C 2,0 C 2,0 C 0,1 C 85 % 90 % 1022,9 hPa 0,0 l/m 0,0 km/h (0 Bft) O-SO 112 0 min -0,3 C 2,0 C 0,0 km/h (0 Bft)
20.12.2020 07:15 1,9 C 5,4 C 1,4 C 2,0 C 2,0 C 0,1 C 85 % 90 % 1022,9 hPa 0,0 l/m 0,0 km/h (0 Bft) O-SO 112 0 min -0,3 C 2,0 C 0,0 km/h (0 Bft)
20.12.2020 07:20 1,9 C 5,4 C 1,4 C 2,0 C 2,0 C 0,1 C 85 % 90 % 1022,9 hPa 0,0 l/m 0,0 km/h (0 Bft) O-SO 112 0 min -0,3 C 2,0 C 0,0 km/h (0 Bft)
20.12.2020 07:25 1,9 C 5,4 C 1,4 C 2,0 C 2,0 C 0,1 C 85 % 90 % 1022,9 hPa 0,0 l/m 0,0 km/h (0 Bft) O-SO 112 0 min -0,3 C 2,0 C 0,0 km/h (0 Bft)
20.12.2020 07:30 1,9 C 5,4 C 1,4 C 2,0 C 2,0 C 0,1 C 85 % 90 % 1022,9 hPa 0,0 l/m 0,0 km/h (0 Bft) O-SO 112 0 min -0,3 C 2,0 C 0,0 km/h (0 Bft)
20.12.2020 07:35 1,9 C 5,4 C 1,5 C 2,0 C 2,0 C 0,1 C 86 % 90 % 1022,9 hPa 0,0 l/m 0,0 km/h (0 Bft) O-SO 112 0 min -0,2 C 2,0 C 0,0 km/h (0 Bft)
20.12.2020 07:40 1,9 C 5,4 C 1,5 C 2,0 C 2,0 C 0,1 C 86 % 90 % 1022,9 hPa 0,0 l/m 0,0 km/h (0 Bft) O-SO 112 0 min -0,2 C 2,0 C 0,0 km/h (0 Bft)
20.12.2020 07:45 2,0 C 5,4 C 1,4 C 2,0 C 2,0 C 0,0 C 86 % 91 % 1022,9 hPa 0,0 l/m 0,0 km/h (0 Bft) O-SO 112 0 min -0,1 C 2,0 C 0,0 km/h (0 Bft)
20.12.2020 07:50 2,0 C 5,4 C 1,4 C 2,0 C 2,0 C 0,0 C 86 % 91 % 1022,9 hPa 0,0 l/m 0,0 km/h (0 Bft) O-SO 112 0 min -0,1 C 2,0 C 0,0 km/h (0 Bft)
20.12.2020 07:55 1,9 C 5,4 C 1,5 C 2,0 C 2,0 C 0,1 C 86 % 91 % 1022,9 hPa 0,0 l/m 0,0 km/h (0 Bft) O-SO 112 0 min -0,2 C 2,0 C 0,0 km/h (0 Bft)
20.12.2020 08:00 1,9 C 5,4 C 1,4 C 2,0 C 2,0 C 0,1 C 86 % 91 % 1022,9 hPa 0,0 l/m 0,0 km/h (0 Bft) O-SO 112 0 min -0,2 C 2,0 C 0,0 km/h (0 Bft)
20.12.2020 08:05 1,9 C 5,4 C 1,5 C 2,0 C 2,0 C 0,1 C 86 % 91 % 1022,9 hPa 0,0 l/m 0,0 km/h (0 Bft) O-SO 112 0 min -0,2 C 2,0 C 0,0 km/h (0 Bft)
20.12.2020 08:10 1,9 C 5,4 C 1,4 C 2,0 C 2,0 C 0,1 C 86 % 91 % 1022,5 hPa 0,0 l/m 0,0 km/h (0 Bft) O-SO 112 0 min -0,2 C 2,0 C 0,0 km/h (0 Bft)
20.12.2020 08:15 1,9 C 5,4 C 1,5 C 2,0 C 2,0 C 0,1 C 86 % 91 % 1022,5 hPa 0,0 l/m 0,0 km/h (0 Bft) O-SO 112 0 min -0,2 C 2,0 C 0,0 km/h (0 Bft)
20.12.2020 08:20 1,9 C 5,4 C 1,5 C 2,0 C 2,0 C 0,1 C 86 % 91 % 1022,5 hPa 0,0 l/m 0,0 km/h (0 Bft) O-SO 112 0 min -0,2 C 2,0 C 0,0 km/h (0 Bft)
20.12.2020 08:25 1,9 C 5,4 C 1,5 C 2,0 C 2,0 C 0,1 C 86 % 91 % 1022,5 hPa 0,0 l/m 0,0 km/h (0 Bft) S-SW 202 0 min -0,2 C 2,0 C 0,0 km/h (0 Bft)
20.12.2020 08:30 1,9 C 5,3 C 1,6 C 2,1 C 2,1 C 0,2 C 86 % 91 % 1022,5 hPa 0,0 l/m 0,0 km/h (0 Bft) S 180 0 min -0,2 C 2,1 C 0,0 km/h (0 Bft)
20.12.2020 08:35 2,0 C 5,3 C 1,7 C 2,3 C 2,3 C 0,3 C 86 % 90 % 1022,5 hPa 0,0 l/m 0,0 km/h (0 Bft) N-NW 337 0 min -0,1 C 2,3 C 0,0 km/h (0 Bft)
20.12.2020 08:40 2,1 C 5,3 C 1,6 C 2,4 C 2,4 C 0,3 C 86 % 90 % 1022,5 hPa 0,0 l/m 0,0 km/h (0 Bft) W-NW 292 0 min 0,0 C 2,4 C 0,0 km/h (0 Bft)
20.12.2020 08:45 2,0 C 5,4 C 1,5 C 2,2 C 2,2 C 0,2 C 86 % 90 % 1022,5 hPa 0,0 l/m 0,2 km/h (0 Bft) W 270 0 min -0,1 C 2,2 C 0,0 km/h (0 Bft)
20.12.2020 08:50 1,9 C 5,3 C 1,5 C 2,1 C 2,1 C 0,2 C 86 % 90 % 1023,1 hPa 0,0 l/m 0,2 km/h (0 Bft) W 270 0 min -0,2 C 2,1 C 0,0 km/h (0 Bft)
20.12.2020 08:55 1,9 C 5,3 C 1,6 C 2,2 C 2,2 C 0,3 C 86 % 90 % 1023,1 hPa 0,0 l/m 0,0 km/h (0 Bft) W 270 0 min -0,2 C 2,2 C 0,0 km/h (0 Bft)
20.12.2020 09:00 1,9 C 5,3 C 1,8 C 2,4 C 2,4 C 0,5 C 86 % 90 % 1023,1 hPa 0,0 l/m 0,0 km/h (0 Bft) W 270 0 min -0,2 C 2,4 C 0,0 km/h (0 Bft)
20.12.2020 09:05 2,1 C 5,3 C 2,0 C 2,6 C 2,6 C 0,5 C 86 % 90 % 1023,1 hPa 0,0 l/m 0,0 km/h (0 Bft) W 270 0 min 0,0 C 2,6 C 0,0 km/h (0 Bft)
20.12.2020 09:10 2,1 C 5,3 C 2,0 C 2,8 C 2,8 C 0,7 C 86 % 90 % 1023,1 hPa 0,0 l/m 0,0 km/h (0 Bft) W 270 0 min 0,0 C 2,8 C 0,0 km/h (0 Bft)
20.12.2020 09:15 2,2 C 5,3 C 2,1 C 3,0 C 3,0 C 0,8 C 86 % 91 % 1023,1 hPa 0,0 l/m 0,0 km/h (0 Bft) W 270 0 min 0,1 C 3,0 C 0,0 km/h (0 Bft)
20.12.2020 09:20 2,3 C 5,3 C 2,2 C 3,1 C 3,1 C 0,8 C 86 % 91 % 1023,1 hPa 0,0 l/m 0,0 km/h (0 Bft) W 270 0 min 0,2 C 3,1 C 0,0 km/h (0 Bft)
20.12.2020 09:25 2,3 C 5,3 C 2,3 C 3,2 C 3,2 C 0,9 C 86 % 91 % 1023,1 hPa 0,0 l/m 0,0 km/h (0 Bft) W 270 0 min 0,2 C 3,2 C 0,0 km/h (0 Bft)
20.12.2020 09:30 2,4 C 5,3 C 2,3 C 3,4 C 3,4 C 1,0 C 86 % 90 % 1023,3 hPa 0,0 l/m 0,0 km/h (0 Bft) W 270 0 min 0,3 C 3,4 C 0,0 km/h (0 Bft)
20.12.2020 09:35 2,4 C 5,3 C 2,4 C 3,5 C 3,5 C 1,1 C 86 % 90 % 1023,3 hPa 0,0 l/m 0,0 km/h (0 Bft) W 270 0 min 0,3 C 3,5 C 0,0 km/h (0 Bft)
20.12.2020 09:40 2,5 C 5,3 C 2,5 C 3,6 C 3,6 C 1,1 C 87 % 90 % 1023,3 hPa 0,0 l/m 0,0 km/h (0 Bft) W 270 0 min 0,6 C 3,6 C 0,0 km/h (0 Bft)
20.12.2020 09:45 2,7 C 5,3 C 2,6 C 3,6 C 3,6 C 0,9 C 87 % 90 % 1023,3 hPa 0,0 l/m 0,0 km/h (0 Bft) W 270 0 min 0,8 C 3,6 C 0,0 km/h (0 Bft)
20.12.2020 09:50 2,7 C 5,3 C 2,7 C 3,7 C 3,7 C 1,0 C 86 % 90 % 1023,1 hPa 0,0 l/m 0,0 km/h (0 Bft) W 270 0 min 0,6 C 3,7 C 0,0 km/h (0 Bft)
20.12.2020 09:55 2,8 C 5,3 C 2,7 C 3,9 C 3,9 C 1,1 C 86 % 90 % 1023,1 hPa 0,0 l/m 0,0 km/h (0 Bft) W 270 0 min 0,7 C 3,9 C 0,0 km/h (0 Bft)
20.12.2020 10:00 2,8 C 5,3 C 2,7 C 4,1 C 4,1 C 1,3 C 86 % 90 % 1023,1 hPa 0,0 l/m 0,0 km/h (0 Bft) W 270 0 min 0,7 C 4,1 C 0,0 km/h (0 Bft)
20.12.2020 10:05 2,9 C 5,3 C 2,8 C 4,2 C 4,2 C 1,3 C 86 % 90 % 1023,1 hPa 0,0 l/m 0,0 km/h (0 Bft) W 270 0 min 0,8 C 4,2 C 0,0 km/h (0 Bft)
20.12.2020 10:10 3,0 C 5,3 C 2,9 C 4,4 C 4,4 C 1,4 C 86 % 90 % 1023,1 hPa 0,0 l/m 0,0 km/h (0 Bft) W 270 0 min 0,9 C 4,4 C 0,0 km/h (0 Bft)
20.12.2020 10:15 3,1 C 5,3 C 3,0 C 4,6 C 4,6 C 1,5 C 86 % 90 % 1023,1 hPa 0,0 l/m 0,0 km/h (0 Bft) W 270 0 min 1,0 C 4,6 C 0,0 km/h (0 Bft)
20.12.2020 10:20 3,2 C 5,3 C 3,1 C 4,7 C 4,7 C 1,5 C 86 % 89 % 1023,1 hPa 0,0 l/m 0,0 km/h (0 Bft) W 270 0 min 1,1 C 4,7 C 0,0 km/h (0 Bft)
20.12.2020 10:25 3,5 C 5,3 C 3,2 C 4,8 C 4,8 C 1,3 C 86 % 89 % 1023,1 hPa 0,0 l/m 0,0 km/h (0 Bft) W 270 0 min 1,4 C 4,8 C 0,0 km/h (0 Bft)
20.12.2020 10:30 3,5 C 5,3 C 3,3 C 5,0 C 5,0 C 1,5 C 85 % 89 % 1023,1 hPa 0,0 l/m 0,0 km/h (0 Bft) W 270 0 min 1,2 C 5,0 C 0,0 km/h (0 Bft)
20.12.2020 10:35 3,7 C 5,2 C 3,5 C 5,3 C 5,3 C 1,6 C 85 % 90 % 1023,1 hPa 0,0 l/m 0,0 km/h (0 Bft) W 270 0 min 1,4 C 5,3 C 0,0 km/h (0 Bft)
20.12.2020 10:40 3,7 C 5,2 C 3,7 C 5,5 C 5,5 C 1,8 C 85 % 89 % 1023,1 hPa 0,0 l/m 0,0 km/h (0 Bft) W 270 0 min 1,4 C 5,5 C 0,0 km/h (0 Bft)
20.12.2020 10:45 4,0 C 5,2 C 4,0 C 5,9 C 5,9 C 1,9 C 85 % 89 % 1023,1 hPa 0,0 l/m 0,0 km/h (0 Bft) W 270 0 min 1,7 C 5,9 C 0,0 km/h (0 Bft)
20.12.2020 10:50 4,1 C 5,2 C 4,2 C 6,1 C 6,1 C 2,0 C 85 % 89 % 1023,4 hPa 0,0 l/m 0,2 km/h (0 Bft) W 270 0 min 1,8 C 6,1 C 1,8 km/h (1 Bft)
20.12.2020 10:55 4,3 C 5,2 C 4,5 C 6,3 C 6,3 C 2,0 C 84 % 88 % 1023,4 hPa 0,0 l/m 0,2 km/h (0 Bft) W 270 0 min 1,8 C 6,3 C 0,0 km/h (0 Bft)
20.12.2020 11:00 4,5 C 5,2 C 4,6 C 6,5 C 6,5 C 2,0 C 84 % 88 % 1023,4 hPa 0,0 l/m 0,2 km/h (0 Bft) W 270 0 min 2,0 C 6,5 C 0,0 km/h (0 Bft)
20.12.2020 11:05 4,7 C 5,2 C 4,7 C 6,6 C 6,6 C 1,9 C 83 % 88 % 1023,4 hPa 0,0 l/m 0,3 km/h (0 Bft) S 180 0 min 2,1 C 6,6 C 4,8 km/h (1 Bft)
20.12.2020 11:10 4,8 C 5,2 C 4,9 C 6,9 C 6,9 C 2,1 C 83 % 88 % 1022,9 hPa 0,0 l/m 0,5 km/h (0 Bft) S 180 0 min 2,2 C 6,9 C 0,0 km/h (0 Bft)
20.12.2020 11:15 5,1 C 5,2 C 5,0 C 7,0 C 7,0 C 1,9 C 82 % 87 % 1022,9 hPa 0,0 l/m 0,5 km/h (0 Bft) S 180 0 min 2,3 C 7,0 C 2,4 km/h (1 Bft)
20.12.2020 11:20 5,1 C 5,2 C 5,1 C 7,0 C 7,0 C 1,9 C 82 % 87 % 1022,9 hPa 0,0 l/m 1,1 km/h (1 Bft) S-SO 157 0 min 2,3 C 7,0 C 2,1 km/h (1 Bft)
20.12.2020 11:25 5,3 C 5,2 C 5,2 C 7,1 C 7,1 C 1,8 C 81 % 86 % 1022,9 hPa 0,0 l/m 1,3 km/h (1 Bft) SO 135 0 min 2,3 C 7,1 C 5,1 km/h (1 Bft)
20.12.2020 11:30 5,4 C 5,2 C 5,3 C 7,1 C 7,1 C 1,7 C 81 % 86 % 1022,8 hPa 0,0 l/m 0,3 km/h (0 Bft) O-NO 67 0 min 2,4 C 7,1 C 0,0 km/h (0 Bft)
20.12.2020 11:35 5,6 C 5,2 C 5,3 C 7,1 C 7,1 C 1,5 C 80 % 84 % 1022,8 hPa 0,0 l/m 0,0 km/h (0 Bft) O-NO 67 0 min 2,4 C 7,1 C 0,0 km/h (0 Bft)
20.12.2020 11:40 5,7 C 5,2 C 5,5 C 7,2 C 7,2 C 1,5 C 80 % 84 % 1022,8 hPa 0,0 l/m 0,0 km/h (0 Bft) O-SO 112 0 min 2,5 C 7,2 C 0,0 km/h (0 Bft)
20.12.2020 11:45 5,9 C 5,2 C 5,5 C 8,7 C 8,7 C 2,8 C 79 % 83 % 1022,8 hPa 0,0 l/m 0,5 km/h (0 Bft) O-NO 67 0 min 2,5 C 8,7 C 0,0 km/h (0 Bft)
20.12.2020 11:50 6,0 C 5,2 C 5,6 C 9,3 C 9,3 C 3,3 C 79 % 82 % 1022,6 hPa 0,0 l/m 0,6 km/h (0 Bft) S-SW 202 5 min 2,6 C 9,3 C 0,0 km/h (0 Bft)
20.12.2020 11:55 6,1 C 5,2 C 5,7 C 9,2 C 9,2 C 3,1 C 78 % 81 % 1022,6 hPa 0,0 l/m 1,1 km/h (1 Bft) S 180 0 min 2,6 C 9,2 C 2,4 km/h (1 Bft)
20.12.2020 12:00 6,3 C 5,2 C 5,8 C 9,0 C 9,0 C 2,7 C 77 % 81 % 1022,6 hPa 0,0 l/m 1,3 km/h (1 Bft) S-SO 157 0 min 2,6 C 9,0 C 2,3 km/h (1 Bft)
20.12.2020 12:05 6,4 C 5,2 C 5,9 C 8,7 C 8,7 C 2,3 C 77 % 81 % 1022,6 hPa 0,0 l/m 1,8 km/h (1 Bft) S-SO 157 0 min 2,7 C 8,7 C 5,8 km/h (2 Bft)
20.12.2020 12:10 6,5 C 5,2 C 5,9 C 8,9 C 8,9 C 2,4 C 76 % 81 % 1022,7 hPa 0,0 l/m 1,4 km/h (1 Bft) N-NW 337 0 min 2,6 C 8,9 C 0,0 km/h (0 Bft)
20.12.2020 12:15 6,6 C 5,2 C 6,2 C 8,7 C 8,7 C 2,1 C 76 % 78 % 1022,7 hPa 0,0 l/m 1,0 km/h (0 Bft) O-SO 112 0 min 2,7 C 8,7 C 2,4 km/h (1 Bft)
20.12.2020 12:20 6,7 C 5,2 C 6,2 C 8,5 C 8,5 C 1,8 C 75 % 78 % 1022,7 hPa 0,0 l/m 0,8 km/h (0 Bft) O-SO 112 0 min 2,6 C 8,5 C 1,6 km/h (1 Bft)
20.12.2020 12:25 6,7 C 5,2 C 6,3 C 8,3 C 8,3 C 1,6 C 75 % 77 % 1022,7 hPa 0,0 l/m 1,0 km/h (0 Bft) O 90 0 min 2,6 C 8,3 C 2,3 km/h (1 Bft)
20.12.2020 12:30 6,8 C 5,2 C 6,5 C 8,3 C 8,3 C 1,5 C 75 % 78 % 1022,6 hPa 0,0 l/m 1,0 km/h (0 Bft) SO 135 0 min 2,7 C 8,3 C 2,7 km/h (1 Bft)
20.12.2020 12:35 6,8 C 5,3 C 6,6 C 8,4 C 8,4 C 1,6 C 74 % 77 % 1022,6 hPa 0,0 l/m 0,8 km/h (0 Bft) W-SW 247 0 min 2,5 C 8,4 C 0,0 km/h (0 Bft)
20.12.2020 12:40 6,9 C 5,3 C 6,7 C 8,7 C 8,7 C 1,8 C 74 % 77 % 1022,6 hPa 0,0 l/m 1,0 km/h (0 Bft) SO 135 0 min 2,6 C 8,7 C 0,0 km/h (0 Bft)
20.12.2020 12:45 7,0 C 5,3 C 6,8 C 8,8 C 8,8 C 1,8 C 74 % 78 % 1022,6 hPa 0,0 l/m 0,8 km/h (0 Bft) S 180 0 min 2,7 C 8,8 C 0,0 km/h (0 Bft)
20.12.2020 12:50 7,0 C 5,3 C 6,8 C 8,7 C 8,7 C 1,7 C 74 % 78 % 1022,6 hPa 0,0 l/m 1,3 km/h (1 Bft) SW 225 0 min 2,7 C 8,7 C 1,9 km/h (1 Bft)
20.12.2020 12:55 7,1 C 5,3 C 6,7 C 8,7 C 8,7 C 1,6 C 75 % 79 % 1022,6 hPa 0,0 l/m 1,6 km/h (1 Bft) S-SW 202 0 min 3,0 C 8,7 C 2,4 km/h (1 Bft)
20.12.2020 13:00 7,1 C 5,3 C 6,7 C 8,6 C 8,6 C 1,5 C 75 % 79 % 1022,6 hPa 0,0 l/m 1,4 km/h (1 Bft) S-SW 202 0 min 3,0 C 8,6 C 1,9 km/h (1 Bft)
20.12.2020 13:05 7,1 C 5,3 C 6,8 C 8,5 C 8,5 C 1,4 C 75 % 79 % 1022,6 hPa 0,0 l/m 1,3 km/h (1 Bft) S-SW 202 0 min 3,0 C 8,5 C 1,6 km/h (1 Bft)
20.12.2020 13:10 7,1 C 5,3 C 6,7 C 8,5 C 8,5 C 1,4 C 75 % 79 % 1022,9 hPa 0,0 l/m 0,8 km/h (0 Bft) S 180 0 min 3,0 C 8,5 C 1,6 km/h (1 Bft)
20.12.2020 13:15 7,0 C 5,3 C 6,6 C 8,4 C 8,4 C 1,4 C 75 % 79 % 1022,9 hPa 0,0 l/m 0,5 km/h (0 Bft) SO 135 0 min 2,9 C 8,4 C 0,0 km/h (0 Bft)
20.12.2020 13:20 7,1 C 5,3 C 6,5 C 8,2 C 8,2 C 1,1 C 75 % 79 % 1022,9 hPa 0,0 l/m 0,2 km/h (0 Bft) SO 135 0 min 3,0 C 8,2 C 0,0 km/h (0 Bft)
20.12.2020 13:25 7,1 C 5,4 C 6,4 C 8,1 C 8,1 C 1,0 C 75 % 80 % 1022,9 hPa 0,0 l/m 0,5 km/h (0 Bft) NO 45 0 min 3,0 C 8,1 C 1,6 km/h (1 Bft)
20.12.2020 13:30 6,9 C 5,4 C 6,4 C 8,1 C 8,1 C 1,2 C 75 % 80 % 1022,4 hPa 0,0 l/m 1,0 km/h (0 Bft) NO 45 0 min 2,8 C 8,1 C 2,4 km/h (1 Bft)
20.12.2020 13:35 6,9 C 5,4 C 6,5 C 8,3 C 8,3 C 1,4 C 75 % 80 % 1022,4 hPa 0,0 l/m 1,3 km/h (1 Bft) N-NO 22 0 min 2,8 C 8,3 C 3,2 km/h (1 Bft)
20.12.2020 13:40 7,0 C 5,4 C 6,6 C 8,4 C 8,4 C 1,4 C 75 % 78 % 1022,4 hPa 0,0 l/m 1,3 km/h (1 Bft) NO 45 0 min 2,9 C 8,4 C 0,0 km/h (0 Bft)
20.12.2020 13:45 7,1 C 5,4 C 6,7 C 8,4 C 8,4 C 1,3 C 75 % 78 % 1022,4 hPa 0,0 l/m 0,6 km/h (0 Bft) O 90 0 min 3,0 C 8,4 C 0,0 km/h (0 Bft)
20.12.2020 13:50 7,0 C 5,4 C 6,7 C 8,5 C 8,5 C 1,5 C 74 % 78 % 1022,7 hPa 0,0 l/m 0,3 km/h (0 Bft) O-NO 67 0 min 2,7 C 8,5 C 0,0 km/h (0 Bft)
20.12.2020 13:55 7,1 C 5,4 C 6,6 C 8,3 C 8,3 C 1,2 C 74 % 77 % 1022,7 hPa 0,0 l/m 0,2 km/h (0 Bft) O-NO 67 0 min 2,8 C 8,3 C 0,0 km/h (0 Bft)
20.12.2020 14:00 7,0 C 5,4 C 6,6 C 8,2 C 8,2 C 1,2 C 74 % 77 % 1022,7 hPa 0,0 l/m 0,0 km/h (0 Bft) O-NO 67 0 min 2,7 C 8,2 C 0,0 km/h (0 Bft)
20.12.2020 14:05 7,1 C 5,4 C 6,6 C 8,0 C 8,0 C 0,9 C 73 % 77 % 1022,7 hPa 0,0 l/m 0,0 km/h (0 Bft) S 180 0 min 2,6 C 8,0 C 0,0 km/h (0 Bft)
20.12.2020 14:10 7,1 C 5,4 C 6,5 C 8,0 C 8,0 C 0,9 C 73 % 77 % 1022,4 hPa 0,0 l/m 0,2 km/h (0 Bft) O 90 0 min 2,6 C 8,0 C 0,0 km/h (0 Bft)
20.12.2020 14:15 7,1 C 5,4 C 6,7 C 8,0 C 8,0 C 0,9 C 73 % 77 % 1022,4 hPa 0,0 l/m 0,2 km/h (0 Bft) NO 45 0 min 2,6 C 8,0 C 0,0 km/h (0 Bft)
20.12.2020 14:20 7,1 C 5,4 C 6,7 C 8,0 C 8,0 C 0,9 C 73 % 77 % 1022,4 hPa 0,0 l/m 0,0 km/h (0 Bft) O 90 0 min 2,6 C 8,0 C 0,0 km/h (0 Bft)
20.12.2020 14:25 7,1 C 5,4 C 6,6 C 7,9 C 7,9 C 0,8 C 73 % 77 % 1022,4 hPa 0,0 l/m 0,0 km/h (0 Bft) O-NO 67 0 min 2,6 C 7,9 C 0,0 km/h (0 Bft)
20.12.2020 14:30 7,1 C 5,4 C 6,6 C 8,0 C 8,0 C 0,9 C 73 % 76 % 1022,2 hPa 0,0 l/m 0,0 km/h (0 Bft) O-NO 67 0 min 2,6 C 8,0 C 0,0 km/h (0 Bft)
20.12.2020 14:35 7,1 C 5,4 C 6,6 C 8,0 C 8,0 C 0,9 C 73 % 76 % 1022,2 hPa 0,0 l/m 0,0 km/h (0 Bft) O 90 0 min 2,6 C 8,0 C 0,0 km/h (0 Bft)
20.12.2020 14:40 7,0 C 5,4 C 6,6 C 7,9 C 7,9 C 0,9 C 73 % 77 % 1022,2 hPa 0,0 l/m 0,3 km/h (0 Bft) S-SO 157 0 min 2,5 C 7,9 C 2,6 km/h (1 Bft)
20.12.2020 14:45 7,1 C 5,4 C 6,4 C 7,7 C 7,7 C 0,6 C 72 % 77 % 1022,2 hPa 0,0 l/m 0,2 km/h (0 Bft) O-SO 112 0 min 2,4 C 7,7 C 0,0 km/h (0 Bft)
20.12.2020 14:50 7,1 C 5,4 C 6,3 C 7,7 C 7,7 C 0,6 C 72 % 77 % 1022,2 hPa 0,0 l/m 0,2 km/h (0 Bft) O-SO 112 0 min 2,4 C 7,7 C 0,0 km/h (0 Bft)
20.12.2020 14:55 6,9 C 5,4 C 6,2 C 7,4 C 7,4 C 0,5 C 72 % 77 % 1022,2 hPa 0,0 l/m 0,5 km/h (0 Bft) S-SO 157 0 min 2,2 C 7,4 C 3,5 km/h (1 Bft)
20.12.2020 15:00 6,9 C 5,4 C 6,2 C 7,3 C 7,3 C 0,4 C 72 % 77 % 1022,2 hPa 0,0 l/m 0,6 km/h (0 Bft) O-NO 67 0 min 2,2 C 7,3 C 0,0 km/h (0 Bft)
20.12.2020 15:05 6,8 C 5,5 C 6,2 C 7,2 C 7,2 C 0,4 C 72 % 77 % 1022,2 hPa 0,0 l/m 0,3 km/h (0 Bft) O-NO 67 0 min 2,1 C 7,2 C 0,0 km/h (0 Bft)
20.12.2020 15:10 6,8 C 5,5 C 6,1 C 7,0 C 7,0 C 0,2 C 72 % 76 % 1022,2 hPa 0,0 l/m 0,0 km/h (0 Bft) O-NO 67 0 min 2,1 C 7,0 C 0,0 km/h (0 Bft)
20.12.2020 15:15 6,7 C 5,5 C 6,0 C 7,0 C 7,0 C 0,3 C 72 % 77 % 1022,2 hPa 0,0 l/m 0,0 km/h (0 Bft) O-NO 67 0 min 2,0 C 7,0 C 0,0 km/h (0 Bft)
20.12.2020 15:20 6,7 C 5,5 C 5,9 C 6,8 C 6,8 C 0,1 C 73 % 77 % 1022,2 hPa 0,0 l/m 0,0 km/h (0 Bft) O-NO 67 0 min 2,2 C 6,8 C 0,0 km/h (0 Bft)
20.12.2020 15:25 6,5 C 5,5 C 5,8 C 6,7 C 6,7 C 0,2 C 73 % 78 % 1022,2 hPa 0,0 l/m 0,0 km/h (0 Bft) O-NO 67 0 min 2,0 C 6,7 C 0,0 km/h (0 Bft)
20.12.2020 15:30 6,5 C 5,5 C 5,7 C 6,6 C 6,6 C 0,1 C 73 % 78 % 1022,7 hPa 0,0 l/m 0,3 km/h (0 Bft) SO 135 0 min 2,0 C 6,6 C 2,1 km/h (1 Bft)
20.12.2020 15:35 6,4 C 5,5 C 5,6 C 6,5 C 6,5 C 0,1 C 73 % 78 % 1022,7 hPa 0,0 l/m 0,3 km/h (0 Bft) O 90 0 min 1,9 C 6,5 C 0,0 km/h (0 Bft)
20.12.2020 15:40 6,3 C 5,5 C 5,5 C 6,4 C 6,4 C 0,1 C 73 % 78 % 1022,7 hPa 0,0 l/m 0,3 km/h (0 Bft) O 90 0 min 1,8 C 6,4 C 0,0 km/h (0 Bft)
20.12.2020 15:45 6,3 C 5,5 C 5,5 C 6,3 C 6,3 C 0,0 C 73 % 78 % 1022,7 hPa 0,0 l/m 0,0 km/h (0 Bft) NO 45 0 min 1,8 C 6,3 C 0,0 km/h (0 Bft)
20.12.2020 15:50 6,1 C 5,5 C 5,4 C 6,2 C 6,2 C 0,1 C 73 % 78 % 1022,8 hPa 0,0 l/m 0,0 km/h (0 Bft) O-NO 67 0 min 1,6 C 6,2 C 0,0 km/h (0 Bft)
20.12.2020 15:55 6,0 C 5,5 C 5,2 C 6,0 C 6,0 C 0,0 C 73 % 78 % 1022,8 hPa 0,0 l/m 0,0 km/h (0 Bft) O-NO 67 0 min 1,5 C 6,0 C 0,0 km/h (0 Bft)
20.12.2020 16:00 6,0 C 5,5 C 5,1 C 6,0 C 5,9 C 0,0 C 73 % 79 % 1022,8 hPa 0,0 l/m 0,0 km/h (0 Bft) O-NO 67 0 min 1,5 C 5,9 C 0,0 km/h (0 Bft)
20.12.2020 16:05 5,9 C 5,5 C 4,9 C 5,8 C 5,7 C 0,0 C 73 % 79 % 1022,8 hPa 0,0 l/m 0,0 km/h (0 Bft) SO 135 0 min 1,4 C 5,7 C 0,0 km/h (0 Bft)
20.12.2020 16:10 5,7 C 5,5 C 4,9 C 5,7 C 5,6 C 0,0 C 73 % 79 % 1022,8 hPa 0,0 l/m 0,0 km/h (0 Bft) SO 135 0 min 1,2 C 5,6 C 0,0 km/h (0 Bft)
20.12.2020 16:15 5,7 C 5,5 C 4,8 C 5,6 C 5,5 C 0,0 C 74 % 79 % 1022,8 hPa 0,0 l/m 0,2 km/h (0 Bft) S 180 0 min 1,4 C 5,5 C 0,0 km/h (0 Bft)
20.12.2020 16:20 5,6 C 5,5 C 4,8 C 5,5 C 5,4 C 0,0 C 74 % 79 % 1022,8 hPa 0,0 l/m 0,2 km/h (0 Bft) S 180 0 min 1,3 C 5,4 C 0,0 km/h (0 Bft)
20.12.2020 16:25 5,6 C 5,5 C 4,7 C 5,5 C 5,4 C 0,0 C 74 % 79 % 1022,8 hPa 0,0 l/m 0,2 km/h (0 Bft) O-NO 67 0 min 1,3 C 5,4 C 0,0 km/h (0 Bft)
20.12.2020 16:30 5,5 C 5,5 C 4,7 C 5,4 C 5,3 C 0,0 C 74 % 80 % 1023,1 hPa 0,0 l/m 0,2 km/h (0 Bft) O-NO 67 0 min 1,2 C 5,3 C 0,0 km/h (0 Bft)
20.12.2020 16:35 5,5 C 5,5 C 4,5 C 5,4 C 5,2 C 0,0 C 74 % 80 % 1023,1 hPa 0,0 l/m 0,0 km/h (0 Bft) O-NO 67 0 min 1,2 C 5,2 C 0,0 km/h (0 Bft)
20.12.2020 16:40 5,3 C 5,5 C 4,3 C 5,2 C 5,1 C 0,0 C 74 % 80 % 1023,1 hPa 0,0 l/m 0,0 km/h (0 Bft) O-NO 67 0 min 1,0 C 5,1 C 0,0 km/h (0 Bft)
20.12.2020 16:45 5,2 C 5,5 C 4,2 C 5,1 C 5,0 C 0,0 C 74 % 80 % 1023,1 hPa 0,0 l/m 0,0 km/h (0 Bft) O-NO 67 0 min 1,0 C 5,0 C 0,0 km/h (0 Bft)
20.12.2020 16:50 5,1 C 5,6 C 4,1 C 5,0 C 4,8 C 0,0 C 75 % 81 % 1023,1 hPa 0,0 l/m 0,0 km/h (0 Bft) O-NO 67 0 min 1,0 C 4,8 C 0,0 km/h (0 Bft)
20.12.2020 16:55 5,0 C 5,6 C 3,9 C 4,9 C 4,7 C 0,0 C 75 % 81 % 1023,1 hPa 0,0 l/m 0,0 km/h (0 Bft) O-NO 67 0 min 0,9 C 4,7 C 0,0 km/h (0 Bft)
20.12.2020 17:00 4,9 C 5,6 C 4,0 C 4,8 C 4,7 C 0,0 C 75 % 81 % 1023,1 hPa 0,0 l/m 0,0 km/h (0 Bft) O 90 0 min 0,8 C 4,7 C 0,0 km/h (0 Bft)
20.12.2020 17:05 4,9 C 5,6 C 4,0 C 4,8 C 4,7 C 0,0 C 75 % 82 % 1023,1 hPa 0,0 l/m 0,0 km/h (0 Bft) O 90 0 min 0,8 C 4,7 C 0,0 km/h (0 Bft)
20.12.2020 17:10 4,8 C 5,6 C 4,0 C 4,8 C 4,7 C 0,0 C 76 % 82 % 1023,4 hPa 0,0 l/m 0,0 km/h (0 Bft) O-NO 67 0 min 0,9 C 4,7 C 0,0 km/h (0 Bft)
20.12.2020 17:15 4,8 C 5,7 C 3,9 C 4,8 C 4,7 C 0,0 C 76 % 82 % 1023,4 hPa 0,0 l/m 0,0 km/h (0 Bft) O-SO 112 0 min 0,9 C 4,7 C 0,0 km/h (0 Bft)
20.12.2020 17:20 4,8 C 5,7 C 3,9 C 4,8 C 4,7 C 0,0 C 76 % 82 % 1023,4 hPa 0,0 l/m 0,0 km/h (0 Bft) SO 135 0 min 0,9 C 4,7 C 0,0 km/h (0 Bft)
20.12.2020 17:25 4,7 C 5,7 C 3,9 C 4,7 C 4,6 C 0,0 C 77 % 82 % 1023,4 hPa 0,0 l/m 0,0 km/h (0 Bft) SO 135 0 min 1,0 C 4,6 C 0,0 km/h (0 Bft)
20.12.2020 17:30 4,7 C 5,7 C 3,8 C 4,6 C 4,5 C 0,0 C 77 % 82 % 1023,1 hPa 0,0 l/m 0,0 km/h (0 Bft) SO 135 0 min 1,0 C 4,5 C 0,0 km/h (0 Bft)
20.12.2020 17:35 4,6 C 5,7 C 3,7 C 4,5 C 4,4 C 0,0 C 77 % 82 % 1023,1 hPa 0,0 l/m 0,0 km/h (0 Bft) SO 135 0 min 0,9 C 4,4 C 0,0 km/h (0 Bft)
20.12.2020 17:40 4,5 C 5,7 C 3,7 C 4,5 C 4,4 C 0,0 C 77 % 83 % 1023,1 hPa 0,0 l/m 0,0 km/h (0 Bft) SO 135 0 min 0,8 C 4,4 C 0,0 km/h (0 Bft)
20.12.2020 17:45 4,4 C 5,7 C 3,6 C 4,4 C 4,3 C 0,0 C 77 % 83 % 1023,1 hPa 0,0 l/m 0,0 km/h (0 Bft) SO 135 0 min 0,7 C 4,3 C 0,0 km/h (0 Bft)
20.12.2020 17:50 4,4 C 5,7 C 3,6 C 4,4 C 4,3 C 0,0 C 77 % 83 % 1023,2 hPa 0,0 l/m 0,0 km/h (0 Bft) S 180 0 min 0,7 C 4,3 C 0,0 km/h (0 Bft)
20.12.2020 17:55 4,4 C 5,7 C 3,8 C 4,4 C 4,3 C 0,0 C 78 % 83 % 1023,2 hPa 0,0 l/m 0,0 km/h (0 Bft) O 90 0 min 0,9 C 4,3 C 0,0 km/h (0 Bft)
20.12.2020 18:00 4,4 C 5,7 C 3,8 C 4,4 C 4,3 C 0,0 C 78 % 83 % 1023,2 hPa 0,0 l/m 0,0 km/h (0 Bft) O 90 0 min 0,9 C 4,3 C 0,0 km/h (0 Bft)
20.12.2020 18:05 4,4 C 5,7 C 3,7 C 4,4 C 4,3 C 0,0 C 78 % 83 % 1023,2 hPa 0,0 l/m 0,2 km/h (0 Bft) NO 45 0 min 0,9 C 4,3 C 2,9 km/h (1 Bft)
20.12.2020 18:10 4,3 C 5,7 C 3,6 C 4,3 C 4,3 C 0,0 C 78 % 83 % 1023,4 hPa 0,0 l/m 0,3 km/h (0 Bft) O 90 0 min 0,8 C 4,3 C 0,0 km/h (0 Bft)
20.12.2020 18:15 4,3 C 5,7 C 3,7 C 4,3 C 4,3 C 0,0 C 78 % 83 % 1023,4 hPa 0,0 l/m 0,3 km/h (0 Bft) O 90 0 min 0,8 C 4,3 C 0,0 km/h (0 Bft)
20.12.2020 18:20 4,3 C 5,7 C 3,7 C 4,3 C 4,2 C 0,0 C 78 % 83 % 1023,4 hPa 0,0 l/m 0,0 km/h (0 Bft) O 90 0 min 0,8 C 4,2 C 0,0 km/h (0 Bft)
20.12.2020 18:25 4,2 C 5,7 C 3,7 C 4,2 C 4,2 C 0,0 C 78 % 83 % 1023,4 hPa 0,0 l/m 0,0 km/h (0 Bft) O 90 0 min 0,7 C 4,2 C 0,0 km/h (0 Bft)
20.12.2020 18:30 4,3 C 5,7 C 3,7 C 4,3 C 4,2 C 0,0 C 78 % 83 % 1023,3 hPa 0,0 l/m 0,0 km/h (0 Bft) O 90 0 min 0,8 C 4,2 C 0,0 km/h (0 Bft)
20.12.2020 18:35 4,2 C 5,7 C 3,6 C 4,2 C 4,2 C 0,0 C 79 % 83 % 1023,3 hPa 0,0 l/m 0,0 km/h (0 Bft) O 90 0 min 0,9 C 4,2 C 0,0 km/h (0 Bft)
20.12.2020 18:40 4,1 C 5,7 C 3,6 C 4,2 C 4,2 C 0,1 C 79 % 83 % 1023,3 hPa 0,0 l/m 0,0 km/h (0 Bft) O 90 0 min 0,8 C 4,2 C 0,0 km/h (0 Bft)
20.12.2020 18:45 4,1 C 5,7 C 3,5 C 4,1 C 4,0 C 0,0 C 79 % 84 % 1023,3 hPa 0,0 l/m 0,0 km/h (0 Bft) O 90 0 min 0,8 C 4,0 C 0,0 km/h (0 Bft)
20.12.2020 18:50 4,0 C 5,7 C 3,5 C 4,0 C 3,9 C 0,0 C 79 % 84 % 1023,6 hPa 0,0 l/m 0,0 km/h (0 Bft) O 90 0 min 0,7 C 3,9 C 0,0 km/h (0 Bft)
20.12.2020 18:55 4,1 C 5,7 C 3,5 C 4,0 C 3,9 C 0,0 C 79 % 84 % 1023,6 hPa 0,0 l/m 0,0 km/h (0 Bft) O 90 0 min 0,8 C 3,9 C 0,0 km/h (0 Bft)
20.12.2020 19:00 4,0 C 5,7 C 3,5 C 4,0 C 3,9 C 0,0 C 79 % 84 % 1023,6 hPa 0,0 l/m 0,0 km/h (0 Bft) O 90 0 min 0,7 C 3,9 C 1,8 km/h (1 Bft)
20.12.2020 19:05 4,0 C 5,7 C 3,5 C 4,0 C 3,9 C 0,0 C 80 % 84 % 1023,6 hPa 0,0 l/m 0,0 km/h (0 Bft) O 90 0 min 0,9 C 3,9 C 0,0 km/h (0 Bft)
20.12.2020 19:10 3,9 C 5,7 C 3,5 C 3,9 C 3,8 C 0,0 C 80 % 84 % 1023,8 hPa 0,0 l/m 0,0 km/h (0 Bft) O 90 0 min 0,8 C 3,8 C 0,0 km/h (0 Bft)
20.12.2020 19:15 4,0 C 5,7 C 3,5 C 3,9 C 3,8 C 0,0 C 80 % 84 % 1023,8 hPa 0,0 l/m 0,0 km/h (0 Bft) O 90 0 min 0,9 C 3,8 C 0,0 km/h (0 Bft)
20.12.2020 19:20 3,9 C 5,7 C 3,4 C 3,9 C 3,8 C 0,0 C 80 % 83 % 1023,8 hPa 0,0 l/m 0,0 km/h (0 Bft) O 90 0 min 0,8 C 3,8 C 0,0 km/h (0 Bft)
20.12.2020 19:25 3,9 C 5,7 C 3,4 C 3,8 C 3,7 C 0,0 C 80 % 84 % 1023,8 hPa 0,0 l/m 0,0 km/h (0 Bft) O 90 0 min 0,8 C 3,7 C 0,0 km/h (0 Bft)
20.12.2020 19:30 3,9 C 5,7 C 3,3 C 3,8 C 3,7 C 0,0 C 80 % 84 % 1023,5 hPa 0,0 l/m 0,0 km/h (0 Bft) O 90 0 min 0,8 C 3,7 C 0,0 km/h (0 Bft)
20.12.2020 19:35 3,9 C 5,7 C 3,3 C 3,8 C 3,6 C 0,0 C 80 % 84 % 1023,5 hPa 0,0 l/m 0,0 km/h (0 Bft) O 90 0 min 0,8 C 3,6 C 0,0 km/h (0 Bft)
20.12.2020 19:40 3,9 C 5,7 C 3,2 C 3,8 C 3,6 C 0,0 C 80 % 84 % 1023,5 hPa 0,0 l/m 0,0 km/h (0 Bft) O 90 0 min 0,8 C 3,6 C 0,0 km/h (0 Bft)
20.12.2020 19:45 3,7 C 5,7 C 3,0 C 3,6 C 3,5 C 0,0 C 79 % 84 % 1023,5 hPa 0,0 l/m 0,0 km/h (0 Bft) O 90 0 min 0,4 C 3,5 C 0,0 km/h (0 Bft)
20.12.2020 19:50 3,6 C 5,7 C 3,0 C 3,5 C 3,4 C 0,0 C 79 % 84 % 1023,8 hPa 0,0 l/m 0,0 km/h (0 Bft) O 90 0 min 0,3 C 3,4 C 0,0 km/h (0 Bft)
20.12.2020 19:55 3,7 C 5,7 C 2,9 C 3,6 C 3,3 C 0,0 C 80 % 84 % 1023,8 hPa 0,0 l/m 0,0 km/h (0 Bft) O 90 0 min 0,6 C 3,3 C 0,0 km/h (0 Bft)
20.12.2020 20:00 3,5 C 5,7 C 2,7 C 3,4 C 3,2 C 0,0 C 80 % 84 % 1023,8 hPa 0,0 l/m 0,0 km/h (0 Bft) O 90 0 min 0,4 C 3,2 C 0,0 km/h (0 Bft)
20.12.2020 20:05 3,5 C 5,7 C 2,7 C 3,4 C 3,1 C 0,0 C 80 % 85 % 1023,8 hPa 0,0 l/m 0,0 km/h (0 Bft) O 90 0 min 0,4 C 3,1 C 0,0 km/h (0 Bft)
20.12.2020 20:10 3,4 C 5,7 C 2,7 C 3,3 C 3,1 C 0,0 C 80 % 85 % 1024,5 hPa 0,0 l/m 0,0 km/h (0 Bft) O 90 0 min 0,3 C 3,1 C 0,0 km/h (0 Bft)
20.12.2020 20:15 3,4 C 5,7 C 2,5 C 3,2 C 2,9 C 0,0 C 80 % 85 % 1024,5 hPa 0,0 l/m 0,0 km/h (0 Bft) O 90 0 min 0,3 C 2,9 C 0,0 km/h (0 Bft)
20.12.2020 20:20 3,3 C 5,7 C 2,5 C 3,1 C 2,8 C 0,0 C 80 % 85 % 1024,5 hPa 0,0 l/m 0,0 km/h (0 Bft) O 90 0 min 0,2 C 2,8 C 0,0 km/h (0 Bft)
20.12.2020 20:25 3,3 C 5,7 C 2,3 C 3,1 C 2,7 C 0,0 C 81 % 86 % 1024,5 hPa 0,0 l/m 0,0 km/h (0 Bft) O 90 0 min 0,4 C 2,7 C 0,0 km/h (0 Bft)
20.12.2020 20:30 3,2 C 5,7 C 2,3 C 3,0 C 2,6 C 0,0 C 80 % 86 % 1024,6 hPa 0,0 l/m 0,0 km/h (0 Bft) O 90 0 min 0,1 C 2,6 C 0,0 km/h (0 Bft)
20.12.2020 20:35 3,1 C 5,7 C 2,3 C 2,9 C 2,4 C 0,0 C 80 % 86 % 1024,6 hPa 0,0 l/m 0,0 km/h (0 Bft) O 90 0 min -0,0 C 2,4 C 0,0 km/h (0 Bft)
20.12.2020 20:40 3,1 C 5,7 C 2,2 C 2,8 C 2,3 C 0,0 C 80 % 86 % 1024,6 hPa 0,0 l/m 0,0 km/h (0 Bft) O 90 0 min -0,0 C 2,3 C 0,0 km/h (0 Bft)
20.12.2020 20:45 3,1 C 5,7 C 2,0 C 2,8 C 2,3 C 0,0 C 81 % 86 % 1024,6 hPa 0,0 l/m 0,0 km/h (0 Bft) O 90 0 min 0,2 C 2,3 C 0,0 km/h (0 Bft)
20.12.2020 20:50 3,0 C 5,7 C 1,9 C 2,7 C 2,2 C 0,0 C 81 % 86 % 1024,4 hPa 0,0 l/m 0,0 km/h (0 Bft) O 90 0 min 0,1 C 2,2 C 0,0 km/h (0 Bft)
20.12.2020 20:55 2,9 C 5,7 C 1,9 C 2,7 C 2,2 C 0,0 C 81 % 86 % 1024,4 hPa 0,0 l/m 0,0 km/h (0 Bft) O 90 0 min -0,0 C 2,2 C 0,0 km/h (0 Bft)
20.12.2020 21:00 2,8 C 5,7 C 1,9 C 2,6 C 2,2 C 0,0 C 81 % 86 % 1024,4 hPa 0,0 l/m 0,0 km/h (0 Bft) O 90 0 min -0,1 C 2,2 C 0,0 km/h (0 Bft)
20.12.2020 21:05 2,7 C 5,7 C 1,9 C 2,5 C 2,0 C 0,0 C 81 % 87 % 1024,4 hPa 0,0 l/m 0,0 km/h (0 Bft) O 90 0 min -0,2 C 2,0 C 0,0 km/h (0 Bft)
20.12.2020 21:10 2,7 C 5,7 C 1,9 C 2,5 C 2,0 C 0,0 C 81 % 87 % 1024,5 hPa 0,0 l/m 0,0 km/h (0 Bft) O 90 0 min -0,2 C 2,0 C 0,0 km/h (0 Bft)
20.12.2020 21:15 2,7 C 5,8 C 1,9 C 2,5 C 2,1 C 0,0 C 81 % 87 % 1024,5 hPa 0,0 l/m 0,0 km/h (0 Bft) O 90 0 min -0,2 C 2,1 C 0,0 km/h (0 Bft)
20.12.2020 21:20 2,6 C 5,8 C 2,0 C 2,4 C 2,1 C 0,0 C 81 % 87 % 1024,5 hPa 0,0 l/m 0,0 km/h (0 Bft) O 90 0 min -0,3 C 2,1 C 0,0 km/h (0 Bft)
20.12.2020 21:25 2,6 C 5,8 C 2,0 C 2,5 C 2,2 C 0,0 C 82 % 87 % 1024,5 hPa 0,0 l/m 0,0 km/h (0 Bft) O 90 0 min -0,2 C 2,2 C 0,0 km/h (0 Bft)
20.12.2020 21:30 2,7 C 5,7 C 2,1 C 2,6 C 2,4 C 0,0 C 82 % 88 % 1024,9 hPa 0,0 l/m 0,3 km/h (0 Bft) SO 135 0 min -0,1 C 2,4 C 3,4 km/h (1 Bft)
20.12.2020 21:35 2,9 C 5,7 C 2,5 C 2,9 C 2,9 C 0,0 C 83 % 88 % 1024,9 hPa 0,0 l/m 1,3 km/h (1 Bft) S 180 0 min 0,3 C 2,9 C 6,8 km/h (2 Bft)
20.12.2020 21:40 3,1 C 5,7 C 2,7 C 3,3 C 3,3 C 0,2 C 83 % 88 % 1024,9 hPa 0,0 l/m 2,3 km/h (1 Bft) SO 135 0 min 0,5 C 3,3 C 4,0 km/h (1 Bft)
20.12.2020 21:45 3,3 C 5,7 C 2,9 C 3,6 C 3,6 C 0,3 C 82 % 87 % 1024,9 hPa 0,0 l/m 2,9 km/h (1 Bft) S 180 0 min 0,5 C 3,6 C 7,6 km/h (2 Bft)
20.12.2020 21:50 3,5 C 5,7 C 3,0 C 3,6 C 3,6 C 0,1 C 82 % 87 % 1025,2 hPa 0,0 l/m 3,2 km/h (1 Bft) N-NO 22 0 min 0,7 C 3,6 C 0,0 km/h (0 Bft)
20.12.2020 21:55 3,5 C 5,7 C 3,1 C 4,0 C 4,0 C 0,5 C 82 % 86 % 1025,2 hPa 0,0 l/m 2,7 km/h (1 Bft) S-SO 157 0 min 0,7 C 4,0 C 3,7 km/h (1 Bft)
20.12.2020 22:00 3,6 C 5,7 C 3,1 C 4,1 C 4,1 C 0,5 C 82 % 86 % 1025,2 hPa 0,0 l/m 2,4 km/h (1 Bft) S 180 0 min 0,8 C 4,1 C 4,5 km/h (1 Bft)
20.12.2020 22:05 3,6 C 5,7 C 3,2 C 4,1 C 4,1 C 0,5 C 81 % 86 % 1025,2 hPa 0,0 l/m 2,6 km/h (1 Bft) SW 225 0 min 0,7 C 4,1 C 0,0 km/h (0 Bft)
20.12.2020 22:10 3,6 C 5,7 C 3,2 C 4,1 C 4,1 C 0,5 C 81 % 86 % 1024,8 hPa 0,0 l/m 2,3 km/h (1 Bft) S-SO 157 0 min 0,7 C 4,1 C 5,0 km/h (1 Bft)
20.12.2020 22:15 3,7 C 5,7 C 3,3 C 4,1 C 4,1 C 0,4 C 81 % 86 % 1024,8 hPa 0,0 l/m 1,8 km/h (1 Bft) S 180 0 min 0,7 C 4,1 C 3,1 km/h (1 Bft)
20.12.2020 22:20 3,7 C 5,7 C 3,3 C 4,1 C 4,1 C 0,4 C 81 % 86 % 1024,8 hPa 0,0 l/m 2,4 km/h (1 Bft) SO 135 0 min 0,7 C 4,1 C 4,0 km/h (1 Bft)
20.12.2020 22:25 3,7 C 5,7 C 3,3 C 3,9 C 3,9 C 0,2 C 81 % 86 % 1024,8 hPa 0,0 l/m 1,8 km/h (1 Bft) NW 315 0 min 0,7 C 3,9 C 0,0 km/h (0 Bft)
20.12.2020 22:30 3,7 C 5,7 C 3,3 C 3,7 C 3,7 C 0,0 C 81 % 86 % 1025,4 hPa 0,0 l/m 1,1 km/h (1 Bft) SO 135 0 min 0,7 C 3,7 C 0,0 km/h (0 Bft)
20.12.2020 22:35 3,7 C 5,7 C 3,3 C 3,7 C 3,6 C 0,0 C 81 % 86 % 1025,4 hPa 0,0 l/m 1,0 km/h (0 Bft) S-SO 157 0 min 0,7 C 3,6 C 3,4 km/h (1 Bft)
20.12.2020 22:40 3,7 C 5,7 C 3,3 C 3,7 C 3,6 C 0,0 C 81 % 86 % 1025,4 hPa 0,0 l/m 1,0 km/h (0 Bft) S-SO 157 0 min 0,7 C 3,6 C 3,5 km/h (1 Bft)
20.12.2020 22:45 3,7 C 5,7 C 3,3 C 3,7 C 3,6 C 0,0 C 81 % 86 % 1025,4 hPa 0,0 l/m 2,1 km/h (1 Bft) O 90 0 min 0,7 C 3,6 C 4,2 km/h (1 Bft)
20.12.2020 22:50 3,8 C 5,7 C 3,4 C 3,7 C 3,6 C 0,0 C 81 % 86 % 1025,3 hPa 0,0 l/m 2,7 km/h (1 Bft) S-SO 157 0 min 0,8 C 3,6 C 5,1 km/h (1 Bft)
20.12.2020 22:55 3,9 C 5,7 C 3,4 C 3,8 C 3,5 C 0,0 C 81 % 86 % 1025,3 hPa 0,0 l/m 2,4 km/h (1 Bft) S-SO 157 0 min 0,9 C 3,5 C 8,2 km/h (2 Bft)
20.12.2020 23:00 3,9 C 5,7 C 3,3 C 3,7 C 3,3 C 0,0 C 82 % 86 % 1025,3 hPa 0,0 l/m 2,3 km/h (1 Bft) S 180 0 min 1,1 C 3,3 C 3,4 km/h (1 Bft)
20.12.2020 23:05 3,9 C 5,8 C 3,3 C 3,6 C 3,1 C 0,0 C 82 % 86 % 1025,3 hPa 0,0 l/m 1,9 km/h (1 Bft) N-NO 22 0 min 1,1 C 3,1 C 0,0 km/h (0 Bft)
20.12.2020 23:10 3,7 C 5,8 C 3,2 C 3,5 C 3,1 C 0,0 C 82 % 87 % 1025,4 hPa 0,0 l/m 1,0 km/h (0 Bft) O-NO 67 0 min 0,9 C 3,1 C 0,0 km/h (0 Bft)
20.12.2020 23:15 3,7 C 5,8 C 3,1 C 3,4 C 2,9 C 0,0 C 82 % 87 % 1025,4 hPa 0,0 l/m 0,6 km/h (0 Bft) S 180 0 min 0,9 C 2,9 C 1,6 km/h (1 Bft)
20.12.2020 23:20 3,7 C 5,8 C 3,1 C 3,4 C 2,9 C 0,0 C 82 % 87 % 1025,4 hPa 0,0 l/m 1,1 km/h (1 Bft) O-NO 67 0 min 0,9 C 2,9 C 3,2 km/h (1 Bft)
20.12.2020 23:25 3,6 C 5,9 C 3,0 C 3,3 C 2,8 C 0,0 C 82 % 87 % 1025,4 hPa 0,0 l/m 1,0 km/h (0 Bft) S-SO 157 0 min 0,8 C 2,8 C 0,0 km/h (0 Bft)
20.12.2020 23:30 3,6 C 5,9 C 3,0 C 3,3 C 2,8 C 0,0 C 82 % 88 % 1025,7 hPa 0,0 l/m 1,0 km/h (0 Bft) S-SW 202 0 min 0,8 C 2,8 C 4,2 km/h (1 Bft)
20.12.2020 23:35 3,6 C 5,9 C 3,0 C 3,3 C 2,7 C 0,0 C 83 % 88 % 1025,7 hPa 0,0 l/m 1,1 km/h (1 Bft) SW 225 0 min 1,0 C 2,7 C 0,0 km/h (0 Bft)
20.12.2020 23:40 3,5 C 5,9 C 2,9 C 3,2 C 2,7 C 0,0 C 83 % 88 % 1025,7 hPa 0,7 l/m 1,0 km/h (0 Bft) S 180 0 min 0,9 C 2,7 C 0,0 km/h (0 Bft)
20.12.2020 23:45 3,5 C 5,9 C 2,8 C 3,2 C 2,7 C 0,0 C 84 % 89 % 1025,7 hPa 0,0 l/m 1,3 km/h (1 Bft) S-SO 157 0 min 1,1 C 2,7 C 6,3 km/h (2 Bft)
20.12.2020 23:50 3,5 C 5,9 C 2,8 C 3,2 C 2,7 C 0,0 C 84 % 89 % 1025,7 hPa 0,0 l/m 1,6 km/h (1 Bft) SO 135 0 min 1,1 C 2,7 C 2,4 km/h (1 Bft)
20.12.2020 23:55 3,5 C 5,9 C 2,7 C 3,2 C 2,7 C 0,0 C 84 % 89 % 1025,7 hPa 0,0 l/m 1,8 km/h (1 Bft) SO 135 0 min 1,1 C 2,7 C 3,4 km/h (1 Bft)
_ Min-Zeit 01:30 10:35 01:25 01:30 01:25 00:00 14:45 14:30 14:30 - 00:20 - - - 01:30 01:25 00:05
Minimum _ -0,5 C 5,2 C -1,4 C -0,8 C -1,3 C 0,0 C 72 % 76 % 1022,2 hPa - 0,0 km/h (0 Bft) - - - -2,4 C -1,3 C 0,0 km/h (0 Bft)
_ Max-Zeit 12:55 23:25 12:45 11:50 11:50 11:50 01:45 02:30 23:30 23:40 21:50 - - 11:50 12:55 11:50 22:55
Maximum _ 7,1 C 5,9 C 6,8 C 9,3 C 9,3 C 3,3 C 88 % 93 % 1025,7 hPa 0,7 l/m 3,2 km/h
N-NO (1 Bft)
- - 5 min 3,0 C 9,3 C 8,2 km/h
S-SO (2 Bft)
Durchschnitt _ 3,5 C 5,5 C 2,9 C 3,9 C 3,7 C 0,4 C 81 % 86 % 1023,3 hPa #0,7 l/m 0,4 km/h (0 Bft) S-SO - #5 min. 0,6 C 3,7 C 0,7 km/h (0 Bft)
2020 www.wetterstation-wechselburg.de